createdAt,value
2019-03-08T00:00:09.113Z,0
2019-03-08T00:05:06.833Z,0
2019-03-08T00:10:07.311Z,0
2019-03-08T00:15:08.020Z,0
2019-03-08T00:20:06.442Z,0
2019-03-08T00:24:06.652Z,0
2019-03-08T00:29:06.985Z,0
2019-03-08T00:34:06.716Z,0
2019-03-08T00:39:07.241Z,0
2019-03-08T00:44:06.507Z,0
2019-03-08T00:49:08.492Z,0
2019-03-08T00:54:07.360Z,0
2019-03-08T00:59:06.908Z,0
2019-03-08T01:04:06.787Z,0
2019-03-08T01:08:07.047Z,0
2019-03-08T01:13:06.834Z,0
2019-03-08T01:18:06.617Z,0
2019-03-08T01:23:06.935Z,0
2019-03-08T01:28:07.159Z,0
2019-03-08T01:33:07.228Z,0
2019-03-08T01:38:07.014Z,0
2019-03-08T01:43:06.739Z,0
2019-03-08T01:48:06.406Z,0
2019-03-08T01:53:06.693Z,0
2019-03-08T01:58:06.952Z,0
2019-03-08T02:02:07.319Z,0
2019-03-08T02:07:08.156Z,0
2019-03-08T02:12:07.707Z,0
2019-03-08T02:17:07.247Z,0
2019-03-08T02:22:06.568Z,0
2019-03-08T02:27:06.888Z,0
2019-03-08T02:32:06.852Z,0
2019-03-08T02:37:07.399Z,0
2019-03-08T02:42:06.695Z,0
2019-03-08T02:46:07.185Z,0
2019-03-08T02:51:07.514Z,0
2019-03-08T02:56:06.763Z,0
2019-03-08T03:01:06.922Z,0
2019-03-08T03:06:07.219Z,0
2019-03-08T03:11:06.931Z,0
2019-03-08T03:15:09.245Z,0
2019-03-08T03:16:06.674Z,0
2019-03-08T03:20:07.326Z,0
2019-03-08T03:25:07.622Z,0
2019-03-08T03:30:08.186Z,0
2019-03-08T03:35:07.579Z,0
2019-03-08T03:40:07.345Z,0
2019-03-08T03:45:08.686Z,0
2019-03-08T03:50:07.634Z,0
2019-03-08T03:55:07.240Z,0
2019-03-08T04:00:08.903Z,0
2019-03-08T04:05:06.961Z,0
2019-03-08T04:10:06.797Z,0
2019-03-08T04:15:08.067Z,0
2019-03-08T04:20:07.331Z,0
2019-03-08T04:25:06.584Z,0
2019-03-08T04:29:07.276Z,0
2019-03-08T04:34:07.291Z,0
2019-03-08T04:39:07.819Z,0
2019-03-08T04:44:06.983Z,0
2019-03-08T04:49:07.001Z,0
2019-03-08T04:54:07.261Z,0
2019-03-08T04:59:07.574Z,0
2019-03-08T05:04:06.535Z,0
2019-03-08T05:08:07.215Z,1.67
2019-03-08T05:13:06.941Z,5
2019-03-08T05:18:07.622Z,13.33
2019-03-08T05:23:06.880Z,32.5
2019-03-08T05:28:07.577Z,77.5
2019-03-08T05:33:07.784Z,168.33
2019-03-08T05:38:06.982Z,298.33
2019-03-08T05:43:06.923Z,421.67
2019-03-08T05:48:07.240Z,602.5
2019-03-08T05:53:07.109Z,933.33
2019-03-08T05:57:08.035Z,1271.67
2019-03-08T06:02:06.976Z,1985.83
2019-03-08T06:07:07.181Z,2380
2019-03-08T06:12:07.713Z,2449.17
2019-03-08T06:17:07.316Z,2423.33
2019-03-08T06:22:07.542Z,2310
2019-03-08T06:27:06.897Z,2475
2019-03-08T06:32:07.136Z,2830.83
2019-03-08T06:36:07.618Z,7677.5
2019-03-08T06:42:07.408Z,8521.67
2019-03-08T06:46:06.714Z,4262.5
2019-03-08T06:51:06.940Z,4740
2019-03-08T06:56:07.220Z,5241.67
2019-03-08T07:01:07.099Z,5485.83
2019-03-08T07:06:07.343Z,11646.67
2019-03-08T07:11:06.976Z,10000.83
2019-03-08T07:15:08.810Z,7226.67
2019-03-08T07:16:15.309Z,7226.67
2019-03-08T07:21:07.160Z,6027.5
2019-03-08T07:25:07.044Z,4679.17
2019-03-08T07:30:08.556Z,5893.33
2019-03-08T07:35:07.145Z,8365.83
2019-03-08T07:40:06.718Z,5346.67
2019-03-08T07:45:08.561Z,10105
2019-03-08T07:50:07.125Z,6455.83
2019-03-08T07:55:07.885Z,12171.67
2019-03-08T07:59:07.643Z,28538.33
2019-03-08T08:04:07.189Z,18042.5
2019-03-08T08:09:08.079Z,8326.67
2019-03-08T08:14:07.449Z,5711.67
2019-03-08T08:19:07.531Z,5965
2019-03-08T08:24:07.792Z,5623.33
2019-03-08T08:28:07.311Z,7040.83
2019-03-08T08:33:07.160Z,12445.83
2019-03-08T08:38:07.438Z,12905.83
2019-03-08T08:43:07.161Z,12130
2019-03-08T08:48:07.044Z,21282.5
2019-03-08T08:53:07.364Z,28070
2019-03-08T08:58:07.565Z,41115.83
2019-03-08T09:03:07.255Z,21313.33
2019-03-08T09:08:07.410Z,17248.33
2019-03-08T09:12:07.269Z,12890.83
2019-03-08T09:17:07.486Z,17313.33
2019-03-08T09:22:06.763Z,36703.33
2019-03-08T09:27:07.292Z,28670.83
2019-03-08T09:32:07.231Z,21920
2019-03-08T09:37:07.470Z,17770
2019-03-08T09:42:07.212Z,15260
2019-03-08T09:46:07.071Z,12230.83
2019-03-08T09:52:07.689Z,10179.17
2019-03-08T09:56:06.607Z,13405
2019-03-08T10:01:17.430Z,9041.67
2019-03-08T10:06:07.627Z,8785
2019-03-08T10:11:07.272Z,6746.67
2019-03-08T10:16:07.339Z,9712.5
2019-03-08T10:21:07.638Z,12213.33
2019-03-08T10:26:07.008Z,12308.33
2019-03-08T10:30:08.469Z,6144.17
2019-03-08T10:31:06.826Z,6144.17
2019-03-08T10:35:07.279Z,15109.17
2019-03-08T10:40:07.351Z,14941.67
2019-03-08T10:45:08.330Z,17646.67
2019-03-08T10:50:07.464Z,11440
2019-03-08T10:55:06.892Z,20115
2019-03-08T11:00:09.433Z,12765
2019-03-08T11:05:06.958Z,14969.17
2019-03-08T11:09:07.765Z,9315.83
2019-03-08T11:10:07.047Z,9315.83
2019-03-08T11:15:08.994Z,5762.5
2019-03-08T11:19:09.735Z,21698.33
2019-03-08T11:20:07.018Z,21698.33
2019-03-08T11:24:07.222Z,20570
2019-03-08T11:29:06.860Z,8970.83
2019-03-08T11:34:07.008Z,11278.33
2019-03-08T11:39:07.598Z,8830
2019-03-08T11:44:06.815Z,17093.33
2019-03-08T11:49:07.264Z,18257.5
2019-03-08T11:54:06.594Z,15108.33
2019-03-08T11:59:06.849Z,42721.66
2019-03-08T12:04:08.287Z,14898.33
2019-03-08T12:08:06.943Z,7405
2019-03-08T12:13:07.753Z,5331.67
2019-03-08T12:18:07.538Z,8790
2019-03-08T12:23:07.747Z,28018.33
2019-03-08T12:28:07.494Z,23517.5
2019-03-08T12:33:07.501Z,22922.5
2019-03-08T12:37:07.486Z,40602.5
2019-03-08T12:38:07.023Z,40602.5
2019-03-08T12:42:07.751Z,36183.33
2019-03-08T12:48:06.618Z,28373.33
2019-03-08T12:52:07.241Z,36395
2019-03-08T12:57:07.440Z,35552.5
2019-03-08T13:02:06.847Z,14335.83
2019-03-08T13:07:07.046Z,23948.33
2019-03-08T13:12:06.735Z,37335
2019-03-08T13:17:07.593Z,10660.83
2019-03-08T13:21:07.211Z,10769.17
2019-03-08T13:26:07.714Z,14212.5
2019-03-08T13:31:07.609Z,17073.33
2019-03-08T13:36:06.967Z,5367.5
2019-03-08T13:41:08.052Z,7016.67
2019-03-08T13:46:07.416Z,3587.5
2019-03-08T13:51:06.524Z,6534.17
2019-03-08T13:56:06.858Z,9059.17
2019-03-08T14:00:09.115Z,14235.83
2019-03-08T14:05:07.540Z,13537.5
2019-03-08T14:10:06.844Z,18800
2019-03-08T14:15:08.767Z,24578.33
2019-03-08T14:20:06.902Z,21420
2019-03-08T14:25:07.566Z,29862.5
2019-03-08T14:30:07.995Z,16668.33
2019-03-08T14:34:16.880Z,16339.17
2019-03-08T14:39:09.060Z,8674.17
2019-03-08T14:44:07.372Z,6284.17
2019-03-08T14:49:08.152Z,6398.33
2019-03-08T14:54:11.740Z,19378.33
2019-03-08T14:59:07.283Z,16448.33
2019-03-08T15:04:07.019Z,18591.67
2019-03-08T15:08:07.630Z,6059.17
2019-03-08T15:09:07.102Z,6059.17
2019-03-08T15:13:07.341Z,7867.5
2019-03-08T15:18:07.115Z,6201.67
2019-03-08T15:23:07.279Z,8841.67
2019-03-08T15:28:07.229Z,7609.17
2019-03-08T15:33:07.635Z,5161.67
2019-03-08T15:38:06.939Z,5114.17
2019-03-08T15:43:14.771Z,4197.5
2019-03-08T15:47:23.447Z,11030.83
2019-03-08T15:52:07.278Z,7295.83
2019-03-08T15:57:07.112Z,4061.67
2019-03-08T16:02:08.465Z,3635
2019-03-08T16:07:07.634Z,3607.5
2019-03-08T16:12:07.375Z,2667.5
2019-03-08T16:16:06.992Z,2910.83
2019-03-08T16:21:07.374Z,3845
2019-03-08T16:26:06.320Z,3081.67
2019-03-08T16:31:07.280Z,1910.83
2019-03-08T16:36:06.456Z,1519.17
2019-03-08T16:41:07.264Z,1262.5
2019-03-08T16:46:07.249Z,976.67
2019-03-08T16:51:07.557Z,713.33
2019-03-08T16:56:07.711Z,502.5
2019-03-08T17:01:07.388Z,319.17
2019-03-08T17:05:07.734Z,180
2019-03-08T17:06:06.560Z,180
2019-03-08T17:10:07.207Z,93.33
2019-03-08T17:15:08.166Z,45
2019-03-08T17:20:07.741Z,19.17
2019-03-08T17:25:07.457Z,7.5
2019-03-08T17:30:08.845Z,2.5
2019-03-08T17:35:07.458Z,0.83
2019-03-08T17:40:07.161Z,0
2019-03-08T17:45:08.498Z,0
2019-03-08T17:49:06.878Z,0
2019-03-08T17:54:07.223Z,0
2019-03-08T17:59:07.123Z,0
2019-03-08T18:04:07.592Z,0
2019-03-08T18:09:07.937Z,0
2019-03-08T18:14:06.921Z,0
2019-03-08T18:19:06.817Z,0
2019-03-08T18:24:07.151Z,0
2019-03-08T18:28:07.646Z,0
2019-03-08T18:29:06.551Z,0
2019-03-08T18:33:06.912Z,0
2019-03-08T18:38:06.838Z,0
2019-03-08T18:43:06.842Z,0
2019-03-08T18:48:07.244Z,0
2019-03-08T18:53:06.550Z,0
2019-03-08T18:58:07.021Z,0
2019-03-08T19:03:06.866Z,0
2019-03-08T19:08:07.422Z,0
2019-03-08T19:13:07.372Z,0
2019-03-08T19:17:06.943Z,0
2019-03-08T19:22:07.255Z,0
2019-03-08T19:27:06.590Z,0
2019-03-08T19:32:06.607Z,0
2019-03-08T19:37:07.322Z,0
2019-03-08T19:42:06.614Z,0
2019-03-08T19:47:06.795Z,0
2019-03-08T19:51:07.364Z,0
2019-03-08T19:56:07.347Z,0
2019-03-08T20:01:07.298Z,0
2019-03-08T20:06:06.650Z,0
2019-03-08T20:11:06.534Z,0
2019-03-08T20:16:07.728Z,0
2019-03-08T20:21:07.481Z,0
2019-03-08T20:26:06.623Z,0
2019-03-08T20:31:06.612Z,0
2019-03-08T20:36:06.951Z,0
2019-03-08T20:40:06.610Z,0
2019-03-08T20:45:08.598Z,0
2019-03-08T20:50:07.126Z,0
2019-03-08T20:55:07.441Z,0
2019-03-08T21:00:09.144Z,0
2019-03-08T21:05:06.920Z,0
2019-03-08T21:09:08.461Z,0
2019-03-08T21:10:06.745Z,0
2019-03-08T21:14:07.404Z,0
2019-03-08T21:19:07.545Z,0
2019-03-08T21:24:06.850Z,0
2019-03-08T21:29:07.180Z,0
2019-03-08T21:34:07.570Z,0
2019-03-08T21:39:07.622Z,0
2019-03-08T21:44:06.898Z,0
2019-03-08T21:49:06.999Z,0
2019-03-08T21:54:07.345Z,0
2019-03-08T21:58:07.608Z,0
2019-03-08T22:03:06.957Z,0
2019-03-08T22:08:17.981Z,0
2019-03-08T22:13:07.768Z,0
2019-03-08T22:18:06.897Z,0
2019-03-08T22:23:07.342Z,0
2019-03-08T22:28:07.615Z,0
2019-03-08T22:32:07.825Z,0
2019-03-08T22:37:07.035Z,0
2019-03-08T22:42:07.790Z,0
2019-03-08T22:47:06.824Z,0
2019-03-08T22:52:07.061Z,0
2019-03-08T22:57:07.343Z,0
2019-03-08T23:02:07.469Z,0
2019-03-08T23:07:08.184Z,0
2019-03-08T23:11:08.028Z,0
2019-03-08T23:16:07.981Z,0
2019-03-08T23:21:07.211Z,0
2019-03-08T23:26:07.565Z,0
2019-03-08T23:31:07.705Z,0
2019-03-08T23:36:07.938Z,0
2019-03-08T23:41:08.351Z,0
2019-03-08T23:46:07.231Z,0
2019-03-08T23:50:07.332Z,0
2019-03-08T23:55:07.630Z,0
